Time;durP1;ratioP1;P1;durP2;ratioP2;P2;SDS_P1;SDS_P2;PMS_P1;PMS_P2;Temp;Humidity;BMP_temperature;BMP_pressure;BME280_temperature;BME280_humidity;BME280_pressure;Samples;Min_cycle;Max_cycle;Signal;HPM_P1;HPM_P2
2021/11/03 00:00:43;;;;;;;7.10;4.35;;;;;;;7.88;100.00;99857.66;4821842;29;20032;-78
2021/11/03 00:03:09;;;;;;;6.57;4.22;;;;;;;7.95;100.00;99873.75;4805452;29;20022;-78
2021/11/03 00:05:47;;;;;;;8.18;3.72;;;;;;;7.89;100.00;99858.47;4804791;29;20030;-78
2021/11/03 00:08:15;;;;;;;7.82;4.50;;;;;;;7.95;100.00;99869.19;4812555;29;20422;-78
2021/11/03 00:10:42;;;;;;;7.93;4.15;;;;;;;7.96;100.00;99867.34;4805667;29;20034;-78
2021/11/03 00:13:13;;;;;;;9.68;3.53;;;;;;;7.88;100.00;99857.66;4806081;29;20031;-78
2021/11/03 00:15:39;;;;;;;7.93;3.83;;;;;;;7.94;100.00;99872.91;4824739;29;20038;-79
2021/11/03 00:18:05;;;;;;;12.02;3.72;;;;;;;7.84;100.00;99851.03;4826796;29;20049;-78
2021/11/03 00:20:32;;;;;;;5.32;3.60;;;;;;;7.90;100.00;99866.31;4821361;29;20030;-78
2021/11/03 00:22:57;;;;;;;7.30;3.15;;;;;;;7.84;100.00;99852.91;4835054;29;20069;-78
2021/11/03 00:25:25;;;;;;;6.45;3.42;;;;;;;7.84;100.00;99866.28;4824196;29;20062;-78
2021/11/03 00:27:51;;;;;;;4.13;2.58;;;;;;;7.81;100.00;99867.53;4827161;29;20042;-78
2021/11/03 00:30:16;;;;;;;4.53;3.00;;;;;;;7.79;100.00;99866.09;4811130;29;20120;-78
2021/11/03 00:32:44;;;;;;;5.28;2.90;;;;;;;7.77;100.00;99869.78;4806416;29;20509;-78
2021/11/03 00:35:09;;;;;;;3.60;2.67;;;;;;;7.75;100.00;99863.81;4804959;29;20421;-78
2021/11/03 00:37:35;;;;;;;5.47;2.88;;;;;;;7.73;100.00;99867.72;4809503;29;20061;-79
2021/11/03 00:40:00;;;;;;;5.03;2.90;;;;;;;7.72;100.00;99864.22;4804537;29;20105;-78
2021/11/03 00:42:25;;;;;;;4.45;2.38;;;;;;;7.69;100.00;99861.97;4805378;29;20513;-79
2021/11/03 00:44:51;;;;;;;5.60;2.42;;;;;;;7.57;100.00;99836.78;4790265;29;20407;-78
2021/11/03 00:47:16;;;;;;;2.95;2.28;;;;;;;7.58;100.00;99845.66;4804246;29;20054;-78
2021/11/03 00:49:42;;;;;;;3.47;2.10;;;;;;;7.60;100.00;99848.97;4805698;29;20041;-78
2021/11/03 00:52:07;;;;;;;2.75;1.85;;;;;;;7.56;100.00;99853.91;4804903;29;20362;-78
2021/11/03 00:54:32;;;;;;;4.00;2.10;;;;;;;7.50;100.00;99842.13;4804152;29;20062;-78
2021/11/03 00:56:58;;;;;;;4.75;2.25;;;;;;;7.52;100.00;99849.97;4805546;29;20432;-78
2021/11/03 00:59:25;;;;;;;4.38;2.15;;;;;;;7.42;100.00;99836.16;4821781;29;20461;-79
2021/11/03 01:01:50;;;;;;;6.38;2.47;;;;;;;7.46;100.00;99848.94;4824450;29;20038;-78
2021/11/03 01:04:15;;;;;;;4.78;2.85;;;;;;;7.46;100.00;99848.94;4819770;29;20054;-78
2021/11/03 01:06:41;;;;;;;3.22;2.50;;;;;;;7.44;100.00;99850.97;4820810;29;20110;-78
2021/11/03 01:09:08;;;;;;;4.25;2.50;;;;;;;7.44;100.00;99850.16;4813823;29;20114;-78
2021/11/03 01:11:34;;;;;;;3.67;2.78;;;;;;;7.44;100.00;99847.47;4803708;29;20031;-78
2021/11/03 01:13:59;;;;;;;4.78;2.70;;;;;;;7.45;100.00;99854.47;4818587;29;20042;-78
2021/11/03 01:16:24;;;;;;;4.20;2.70;;;;;;;7.43;100.00;99849.34;4819545;29;20034;-78
2021/11/03 01:18:53;;;;;;;7.90;3.30;;;;;;;7.36;100.00;99843.16;4804706;29;20039;-78
2021/11/03 01:21:22;;;;;;;4.47;2.70;;;;;;;7.41;100.00;99848.69;4804729;29;20070;-78
2021/11/03 01:23:47;;;;;;;5.40;3.00;;;;;;;7.41;100.00;99848.69;4804315;29;20031;-78
2021/11/03 01:26:13;;;;;;;4.80;3.10;;;;;;;7.48;100.00;99854.06;4806310;29;20046;-78
2021/11/03 01:28:38;;;;;;;4.43;2.70;;;;;;;7.50;100.00;99850.16;4810747;29;20361;-77
2021/11/03 01:31:03;;;;;;;3.42;2.63;;;;;;;7.51;100.00;99859.03;4811916;29;20037;-78
2021/11/03 01:33:29;;;;;;;3.22;2.50;;;;;;;7.52;100.00;99858.84;4810458;29;20060;-79
2021/11/03 01:35:54;;;;;;;5.45;2.90;;;;;;;7.52;100.00;99856.16;4802107;29;20035;-79
2021/11/03 01:38:22;;;;;;;5.93;2.65;;;;;;;7.50;100.00;99850.16;4813680;29;20032;-78
2021/11/03 01:40:48;;;;;;;5.78;3.08;;;;;;;7.46;100.00;99840.91;4812381;29;20078;-78
2021/11/03 01:43:17;;;;;;;5.68;3.35;;;;;;;7.44;100.00;99839.44;4808145;29;20058;-78
2021/11/03 01:45:45;;;;;;;6.22;2.95;;;;;;;7.38;100.00;99833.03;4808665;29;20030;-78
2021/11/03 01:48:11;;;;;;;4.50;3.45;;;;;;;7.43;100.00;99838.63;4816883;29;20038;-78
2021/11/03 01:50:56;;;;;;;6.38;3.40;;;;;;;7.41;100.00;99826.47;4827358;29;20031;-78
2021/11/03 01:53:26;;;;;;;6.35;3.92;;;;;;;7.37;100.00;99842.09;4827900;29;20034;-78
2021/11/03 01:56:04;;;;;;;4.50;3.58;;;;;;;7.35;100.00;99838.81;4826654;29;20113;-77
2021/11/03 01:58:41;;;;;;;4.85;3.85;;;;;;;7.04;100.00;99793.84;4821734;29;20037;-78
2021/11/03 02:01:07;;;;;;;6.85;3.70;;;;;;;7.30;100.00;99836.75;4823387;29;20036;-78
2021/11/03 02:03:34;;;;;;;11.20;3.65;;;;;;;7.23;100.00;99833.22;4826808;29;20121;-78
2021/11/03 02:06:04;;;;;;;7.97;4.20;;;;;;;7.21;100.00;99827.22;4819379;29;20080;-78
2021/11/03 02:08:34;;;;;;;6.53;3.65;;;;;;;7.25;100.00;99841.88;4807635;29;20418;-78
2021/11/03 02:11:00;;;;;;;8.65;3.90;;;;;;;7.24;100.00;99839.41;4808673;29;20027;-78
2021/11/03 02:13:27;;;;;;;7.43;3.78;;;;;;;7.17;100.00;99830.53;4806483;29;20049;-78
2021/11/03 02:15:53;;;;;;;7.78;3.92;;;;;;;7.18;100.00;99826.81;4808457;29;20103;-78
2021/11/03 02:18:21;;;;;;;6.18;3.90;;;;;;;7.15;100.00;99811.16;4806752;29;20030;-78
2021/11/03 02:20:50;;;;;;;6.03;4.25;;;;;;;7.22;100.00;99825.41;4821974;29;20374;-78
2021/11/03 02:23:32;;;;;;;6.80;4.18;;;;;;;6.91;100.00;99783.94;4805475;29;20108;-78
2021/11/03 02:26:07;;;;;;;5.57;4.00;;;;;;;7.12;100.00;99811.56;4808811;29;20129;-78
2021/11/03 02:28:33;;;;;;;7.50;4.32;;;;;;;6.95;100.00;99784.34;4806294;29;20406;-77
2021/11/03 02:31:00;;;;;;;9.45;4.32;;;;;;;7.21;100.00;99827.22;4808080;29;20366;-78
2021/11/03 02:33:27;;;;;;;8.88;4.70;;;;;;;7.07;100.00;99810.31;4813389;29;20125;-78
2021/11/03 02:35:59;;;;;;;7.82;4.53;;;;;;;7.09;100.00;99812.81;4822976;29;20041;-78
2021/11/03 02:38:30;;;;;;;7.63;4.45;;;;;;;7.17;100.00;99826.00;4821824;29;20484;-78
2021/11/03 02:41:02;;;;;;;6.90;4.70;;;;;;;7.13;100.00;99814.06;4807543;29;20154;-79
2021/11/03 02:43:38;;;;;;;6.68;4.43;;;;;;;7.15;100.00;99822.72;4808123;29;20053;-78
2021/11/03 02:46:04;;;;;;;7.47;5.15;;;;;;;7.14;100.00;99829.06;4820344;29;20023;-78
2021/11/03 02:48:32;;;;;;;7.53;5.00;;;;;;;7.13;100.00;99827.44;4807455;29;20034;-78
2021/11/03 02:51:30;;;;;;;7.15;4.50;;;;;;;7.13;100.00;99834.63;4806982;29;20117;-78
2021/11/03 02:53:57;;;;;;;7.63;4.50;;;;;;;7.12;100.00;99827.59;4811221;29;20062;-78
2021/11/03 02:56:26;;;;;;;7.40;4.65;;;;;;;7.11;100.00;99837.50;4833077;29;20125;-78
2021/11/03 02:58:52;;;;;;;9.88;4.63;;;;;;;7.12;100.00;99832.97;4822652;29;20069;-78
2021/11/03 03:01:30;;;;;;;7.97;5.00;;;;;;;7.12;100.00;99835.63;4809569;29;20035;-78
2021/11/03 03:03:56;;;;;;;6.50;4.63;;;;;;;7.13;100.00;99834.63;4821285;29;20031;-78
2021/11/03 03:06:25;;;;;;;6.82;4.78;;;;;;;7.12;100.00;99838.31;4808195;29;20113;-78
2021/11/03 03:08:52;;;;;;;8.40;4.90;;;;;;;7.06;100.00;99824.72;4808500;29;20101;-78
2021/11/03 03:11:19;;;;;;;8.05;4.90;;;;;;;7.15;100.00;99827.22;4805752;29;20058;-78
2021/11/03 03:13:44;;;;;;;7.75;5.00;;;;;;;7.15;100.00;99835.25;4809436;29;20134;-78
2021/11/03 03:16:10;;;;;;;9.57;5.30;;;;;;;7.16;100.00;99834.22;4805880;29;20042;-78
2021/11/03 03:18:36;;;;;;;12.25;5.43;;;;;;;7.17;100.00;99839.38;4792241;29;20437;-78
2021/11/03 03:21:02;;;;;;;7.05;5.18;;;;;;;7.17;100.00;99835.88;4804759;29;20054;-78
2021/11/03 03:23:27;;;;;;;6.80;5.00;;;;;;;7.14;100.00;99829.06;4805680;29;20118;-78
2021/11/03 03:25:54;;;;;;;7.47;5.43;;;;;;;7.11;100.00;99821.44;4821289;29;20118;-78
2021/11/03 03:28:21;;;;;;;8.43;5.35;;;;;;;7.22;100.00;99836.13;4820175;29;20105;-79
2021/11/03 03:30:46;;;;;;;7.53;5.28;;;;;;;7.13;100.00;99821.25;4811409;29;20054;-78
2021/11/03 03:33:12;;;;;;;7.88;5.43;;;;;;;7.23;100.00;99838.56;4824446;29;20044;-78
2021/11/03 03:35:37;;;;;;;9.90;5.68;;;;;;;7.24;100.00;99837.53;4818320;29;20380;-78
2021/11/03 03:38:03;;;;;;;7.18;5.60;;;;;;;7.27;100.00;99834.47;4806017;29;20412;-78
2021/11/03 03:40:29;;;;;;;11.07;6.20;;;;;;;7.28;100.00;99840.63;4806039;29;20039;-78
2021/11/03 03:42:54;;;;;;;8.05;6.03;;;;;;;7.25;100.00;99833.00;4806618;29;20023;-78
2021/11/03 03:45:20;;;;;;;9.13;6.60;;;;;;;7.27;100.00;99836.31;4803693;29;20031;-78
2021/11/03 03:47:45;;;;;;;12.18;6.38;;;;;;;7.29;100.00;99828.94;4807279;29;20035;-78
2021/11/03 03:50:11;;;;;;;8.85;6.32;;;;;;;7.31;100.00;99837.56;4805964;29;20052;-78
2021/11/03 03:52:36;;;;;;;8.18;6.45;;;;;;;7.37;100.00;99836.75;4822616;29;20364;-78
2021/11/03 03:55:04;;;;;;;9.85;6.32;;;;;;;7.38;100.00;99829.53;4825098;29;20511;-78
2021/11/03 03:57:29;;;;;;;10.15;6.07;;;;;;;7.35;100.00;99833.47;4821735;29;20102;-78
2021/11/03 03:59:55;;;;;;;9.43;6.90;;;;;;;7.40;100.00;99841.72;4824830;29;20062;-79
2021/11/03 04:02:20;;;;;;;10.13;6.68;;;;;;;7.41;100.00;99842.53;4812035;29;20049;-79
2021/11/03 04:04:46;;;;;;;10.95;6.22;;;;;;;7.41;100.00;99842.53;4809357;29;20043;-79
2021/11/03 04:07:11;;;;;;;9.55;6.70;;;;;;;7.42;100.00;99838.84;4807459;29;20030;-78
2021/11/03 04:09:36;;;;;;;6.80;6.10;;;;;;;7.42;100.00;99834.31;4807995;29;20027;-79
2021/11/03 04:12:02;;;;;;;10.07;6.28;;;;;;;7.44;100.00;99832.25;4809013;29;20041;-78
2021/11/03 04:14:28;;;;;;;9.48;6.63;;;;;;;7.40;100.00;99828.31;4805147;29;20552;-78
2021/11/03 04:16:53;;;;;;;12.73;6.53;;;;;;;7.44;100.00;99840.28;4821297;29;20034;-78
2021/11/03 04:19:19;;;;;;;12.88;7.20;;;;;;;7.46;100.00;99840.09;4805779;29;20135;-78
2021/11/03 04:21:44;;;;;;;9.43;6.65;;;;;;;7.45;100.00;99838.41;4789704;29;20071;-78
2021/11/03 04:24:10;;;;;;;11.20;6.55;;;;;;;7.44;100.00;99834.91;4804325;29;20416;-78
2021/11/03 04:26:40;;;;;;;9.93;6.47;;;;;;;7.44;100.00;99842.94;4806608;29;20035;-78
2021/11/03 04:29:06;;;;;;;10.75;7.05;;;;;;;7.32;100.00;99823.16;4818499;29;20110;-78
2021/11/03 04:31:31;;;;;;;10.27;6.68;;;;;;;7.35;100.00;99828.13;4810818;29;20102;-78
2021/11/03 04:33:57;;;;;;;8.48;6.70;;;;;;;7.41;100.00;99840.66;4838706;29;20070;-78
2021/11/03 04:36:23;;;;;;;9.52;7.50;;;;;;;7.42;100.00;99850.38;4818642;29;20095;-78
2021/11/03 04:38:50;;;;;;;14.27;7.07;;;;;;;7.31;100.00;99826.84;4809264;29;20056;-78
2021/11/03 04:41:16;;;;;;;10.57;6.80;;;;;;;7.39;100.00;99845.41;4824780;29;20129;-78
2021/11/03 04:43:42;;;;;;;12.18;7.30;;;;;;;7.34;100.00;99836.34;4824208;29;20113;-78
2021/11/03 04:46:07;;;;;;;9.70;6.78;;;;;;;7.39;100.00;99849.94;4818477;29;20370;-78
2021/11/03 04:48:33;;;;;;;12.07;7.07;;;;;;;7.30;100.00;99844.75;4823644;29;20121;-78
2021/11/03 04:50:58;;;;;;;10.43;7.28;;;;;;;7.38;100.00;99858.97;4823103;29;20422;-78
2021/11/03 04:53:24;;;;;;;9.98;7.00;;;;;;;7.33;100.00;99853.44;4824548;29;20103;-78
2021/11/03 04:55:50;;;;;;;10.63;6.88;;;;;;;7.39;100.00;99860.66;4821168;29;20469;-77
2021/11/03 04:58:15;;;;;;;12.80;7.97;;;;;;;7.39;100.00;99866.81;4823576;29;20034;-78
2021/11/03 05:00:42;;;;;;;14.40;7.38;;;;;;;7.38;100.00;99861.66;4818963;29;20130;-78
2021/11/03 05:03:07;;;;;;;11.68;7.72;;;;;;;7.39;100.00;99863.34;4805309;29;20065;-78
2021/11/03 05:05:35;;;;;;;12.13;7.38;;;;;;;7.33;100.00;99858.78;4806408;29;20059;-77
2021/11/03 05:08:00;;;;;;;10.65;7.38;;;;;;;7.40;100.00;99868.47;4805442;29;20121;-78
2021/11/03 05:10:26;;;;;;;13.20;7.60;;;;;;;7.39;100.00;99874.03;4821645;29;20125;-78
2021/11/03 05:12:51;;;;;;;13.20;7.68;;;;;;;7.38;100.00;99873.19;4825283;29;20416;-77
2021/11/03 05:15:17;;;;;;;12.85;8.65;;;;;;;7.37;100.00;99870.72;4828648;29;20090;-78
2021/11/03 05:17:42;;;;;;;10.45;7.80;;;;;;;7.32;100.00;99870.50;4826695;29;20050;-79
2021/11/03 05:20:09;;;;;;;12.18;8.23;;;;;;;7.29;100.00;99863.72;4823311;29;20035;-78
2021/11/03 05:22:35;;;;;;;11.63;7.70;;;;;;;7.37;100.00;99873.41;4807924;29;20129;-78
2021/11/03 05:25:00;;;;;;;14.18;7.57;;;;;;;7.33;100.00;99874.84;4793889;29;20035;-78
2021/11/03 05:27:26;;;;;;;14.13;8.07;;;;;;;7.28;100.00;99870.91;4813054;29;20507;-79
2021/11/03 05:29:52;;;;;;;10.73;7.80;;;;;;;7.28;100.00;99873.59;4823716;29;20436;-79
2021/11/03 05:32:18;;;;;;;11.05;7.78;;;;;;;7.24;100.00;99872.31;4805524;29;20046;-78
2021/11/03 05:34:45;;;;;;;12.00;8.48;;;;;;;7.21;100.00;99874.56;4809470;29;20114;-78
2021/11/03 05:37:15;;;;;;;14.38;7.82;;;;;;;7.22;100.00;99870.91;4793409;29;20042;-80
2021/11/03 05:39:41;;;;;;;12.88;7.75;;;;;;;7.22;100.00;99873.56;4810672;29;20438;-79
2021/11/03 05:42:07;;;;;;;11.60;8.27;;;;;;;7.22;100.00;99876.25;4839774;29;20686;-79
2021/11/03 05:44:34;;;;;;;18.75;9.10;;;;;;;7.12;100.00;99854.38;4817317;29;20054;-79
2021/11/03 05:47:00;;;;;;;15.90;9.75;;;;;;;7.15;100.00;99854.81;4806663;29;20108;-80
2021/11/03 05:49:30;;;;;;;13.98;8.85;;;;;;;7.12;100.00;99854.38;4810390;29;20031;-81
2021/11/03 05:51:57;;;;;;;16.10;9.40;;;;;;;7.15;100.00;99865.53;4815304;29;20038;-79
2021/11/03 05:54:27;;;;;;;17.15;9.77;;;;;;;7.13;100.00;99872.09;4813080;29;20100;-81
2021/11/03 05:56:54;;;;;;;16.92;10.23;;;;;;;7.11;100.00;99869.59;4823187;29;20045;-81
2021/11/03 05:59:20;;;;;;;14.60;10.07;;;;;;;7.01;100.00;99866.47;4828361;29;20051;-80
2021/11/03 06:01:45;;;;;;;17.50;10.77;;;;;;;7.05;100.00;99865.88;4830437;29;20133;-80
2021/11/03 06:04:11;;;;;;;15.23;10.20;;;;;;;7.09;100.00;99874.34;4843681;29;20092;-83
2021/11/03 06:06:37;;;;;;;15.13;10.23;;;;;;;7.07;100.00;99874.53;4825461;29;20042;-80
2021/11/03 06:09:04;;;;;;;19.42;9.80;;;;;;;7.08;100.00;99872.66;4816913;29;20039;-81
2021/11/03 06:11:30;;;;;;;13.07;9.80;;;;;;;7.05;100.00;99883.75;4812813;29;20048;-80
2021/11/03 06:13:56;;;;;;;16.17;10.95;;;;;;;7.03;100.00;99878.63;4816524;29;20040;-82
2021/11/03 06:16:22;;;;;;;16.50;10.40;;;;;;;7.04;100.00;99879.44;4808906;29;20124;-80
2021/11/03 06:18:48;;;;;;;15.20;10.52;;;;;;;7.04;100.00;99882.94;4822052;29;20083;-81
2021/11/03 06:21:13;;;;;;;16.65;9.93;;;;;;;6.96;100.00;99871.59;4821463;29;20133;-81
2021/11/03 06:23:39;;;;;;;16.08;11.38;;;;;;;6.94;100.00;99874.47;4809285;29;20038;-80
2021/11/03 06:26:05;;;;;;;20.27;11.30;;;;;;;6.95;100.00;99878.78;4810741;29;20026;-80
2021/11/03 06:28:31;;;;;;;18.23;10.80;;;;;;;7.03;100.00;99885.81;4807456;29;20514;-80
2021/11/03 06:30:57;;;;;;;15.13;10.60;;;;;;;7.03;100.00;99883.97;4821568;29;20118;-80
2021/11/03 06:33:22;;;;;;;17.20;10.43;;;;;;;7.03;100.00;99883.16;4814279;29;20035;-80
2021/11/03 06:35:49;;;;;;;16.88;10.48;;;;;;;6.91;100.00;99874.03;4811628;29;20027;-80
2021/11/03 06:38:15;;;;;;;18.73;11.88;;;;;;;7.01;100.00;99886.00;4808960;29;20031;-81
2021/11/03 06:40:42;;;;;;;23.17;12.48;;;;;;;7.09;100.00;99897.59;4829767;29;20106;-80
2021/11/03 06:43:08;;;;;;;22.13;11.88;;;;;;;7.10;100.00;99905.41;4821440;29;20031;-82
2021/11/03 06:45:34;;;;;;;18.70;11.38;;;;;;;7.10;100.00;99909.94;4837630;29;20042;-81
2021/11/03 06:48:01;;;;;;;18.25;12.15;;;;;;;7.12;100.00;99915.91;4820493;29;20094;-80
2021/11/03 06:50:33;;;;;;;18.95;11.93;;;;;;;7.09;100.00;99908.28;4818808;29;20022;-81
2021/11/03 06:53:01;;;;;;;18.98;11.05;;;;;;;7.05;100.00;99898.00;4812296;29;20099;-81
2021/11/03 06:55:27;;;;;;;23.50;12.10;;;;;;;7.11;100.00;99908.91;4817645;29;20038;-80
2021/11/03 06:57:56;;;;;;;23.60;12.48;;;;;;;7.16;100.00;99922.53;4822103;29;20030;-81
2021/11/03 07:00:30;;;;;;;24.60;13.65;;;;;;;7.19;100.00;99922.94;4821970;29;20233;-81
2021/11/03 07:02:56;;;;;;;22.35;12.55;;;;;;;7.22;100.00;99924.41;4823634;29;20068;-81
2021/11/03 07:05:21;;;;;;;18.50;12.52;;;;;;;7.14;100.00;99921.88;4823334;29;20030;-81
2021/11/03 07:07:47;;;;;;;21.88;12.00;;;;;;;7.11;100.00;99927.63;4824963;29;20086;-81
2021/11/03 07:10:21;;;;;;;16.40;11.73;;;;;;;7.13;100.00;99930.94;4822429;29;20043;-82
2021/11/03 07:12:47;;;;;;;18.73;11.57;;;;;;;7.16;100.00;99938.56;4839051;29;20087;-81
2021/11/03 07:15:13;;;;;;;18.40;12.23;;;;;;;7.13;100.00;99926.41;4837101;29;20100;-83
2021/11/03 07:17:39;;;;;;;29.15;14.05;;;;;;;7.24;100.00;99933.03;4833318;29;20038;-81
2021/11/03 07:20:05;;;;;;;21.17;13.23;;;;;;;7.32;100.00;99940.06;4830001;29;20026;-83
2021/11/03 07:22:30;;;;;;;19.45;12.10;;;;;;;7.13;100.00;99907.69;4792279;29;20035;-81
2021/11/03 07:24:56;;;;;;;17.88;11.07;;;;;;;7.30;100.00;99927.72;4816625;29;20382;-81
2021/11/03 07:27:21;;;;;;;21.15;11.80;;;;;;;7.40;100.00;99943.41;4811858;29;20035;-83
2021/11/03 07:29:48;;;;;;;15.52;10.70;;;;;;;7.30;100.00;99933.06;4845518;29;20073;-82
2021/11/03 07:32:13;;;;;;;19.85;10.75;;;;;;;7.37;100.00;99957.19;4826718;29;20049;-83
2021/11/03 07:34:39;;;;;;;18.42;11.13;;;;;;;7.38;100.00;99953.47;4833150;29;20022;-83
2021/11/03 07:39:40;;;;;;;19.38;11.23;;;;;;;7.44;100.00;99947.34;5267949;24;20062;-83
2021/11/03 07:42:06;;;;;;;18.83;11.35;;;;;;;7.47;100.00;99946.94;4849121;29;20075;-83
2021/11/03 07:47:07;;;;;;;21.42;11.85;;;;;;;6.64;100.00;99822.28;5291644;24;20038;-83
2021/11/03 07:54:40;;;;;;;19.60;12.88;;;;;;;7.88;100.00;99958.59;4861608;29;20034;-83
2021/11/03 07:57:05;;;;;;;24.70;13.98;;;;;;;7.82;100.00;99949.53;4866212;29;20022;-82
2021/11/03 07:59:31;;;;;;;20.27;12.52;;;;;;;7.94;100.00;99966.66;4849885;29;20018;-83
2021/11/03 08:01:57;;;;;;;19.13;13.02;;;;;;;7.84;100.00;99955.50;4866898;29;20101;-82
2021/11/03 08:04:23;;;;;;;22.27;13.20;;;;;;;7.92;100.00;99974.09;4861141;29;20030;-81
2021/11/03 08:06:49;;;;;;;23.77;12.32;;;;;;;8.08;100.00;99977.41;4858894;29;20070;-82
2021/11/03 08:09:15;;;;;;;21.02;12.40;;;;;;;8.24;100.00;99971.66;4850215;29;20205;-82
2021/11/03 08:24:38;;;;;;;16.92;10.07;;;;;;;8.14;100.00;99862.19;5357118;24;19925;-84
2021/11/03 08:27:04;;;;;;;19.13;8.85;;;;;;;7.78;100.00;99768.84;4846486;29;20046;-84
2021/11/03 08:29:30;;;;;;;13.70;7.65;;;;;;;8.39;100.00;99850.88;4829252;29;20107;-83
2021/11/03 08:31:57;;;;;;;13.05;5.45;;;;;;;9.34;100.00;99983.59;4847743;29;20408;-83
2021/11/03 08:34:26;;;;;;;12.10;4.68;;;;;;;8.33;100.00;99836.41;4948623;24;20102;-83
2021/11/03 08:39:29;;;;;;;8.93;4.13;;;;;;;8.35;100.00;99807.56;5059894;24;20070;-82
2021/11/03 08:41:57;;;;;;;10.43;3.78;;;;;;;9.67;100.00;99992.53;4857036;29;20029;-81
2021/11/03 08:44:24;;;;;;;13.48;8.05;;;;;;;8.95;100.00;99855.69;4865616;29;20077;-82
2021/11/03 08:46:50;;;;;;;11.60;6.13;;;;;;;9.72;100.00;99976.63;4879662;29;20066;-83
2021/11/03 08:49:15;;;;;;;10.27;5.28;;;;;;;9.73;100.00;99979.06;4880167;29;20041;-81
2021/11/03 08:51:41;;;;;;;13.20;6.18;;;;;;;9.81;100.00;99988.78;4872719;29;20034;-82
2021/11/03 08:54:07;;;;;;;8.23;5.82;;;;;;;9.91;100.00;99996.38;4972614;24;20343;-81
2021/11/03 08:56:35;;;;;;;10.88;6.68;;;;;;;9.06;100.00;99856.88;5136283;24;20058;-82
2021/11/03 08:59:03;;;;;;;16.20;4.65;;;;;;;8.79;100.00;99797.16;4842382;29;20053;-81
2021/11/03 09:01:30;;;;;;;8.43;3.60;;;;;;;10.24;100.00;99994.31;4844008;29;20043;-82
2021/11/03 09:03:57;;;;;;;14.15;4.40;;;;;;;10.03;100.00;99916.69;4821158;29;20035;-81
2021/11/03 09:06:23;;;;;;;10.43;4.40;;;;;;;9.79;100.00;99846.56;4823991;29;20035;-81
2021/11/03 09:08:50;;;;;;;10.90;5.30;;;;;;;10.43;100.00;99911.88;4818802;29;20041;-80
2021/11/03 09:11:19;;;;;;;13.00;5.35;;;;;;;10.95;100.00;99992.34;4829444;29;20118;-81
2021/11/03 09:13:45;;;;;;;9.15;2.85;;;;;;;10.68;100.00;100006.03;4815852;29;20038;-80
2021/11/03 09:16:13;;;;;;;4.80;2.33;;;;;;;10.53;100.00;100000.16;4830751;29;20361;-81
2021/11/03 09:18:38;;;;;;;8.55;3.03;;;;;;;10.54;100.00;99982.97;4822866;29;20038;-80
2021/11/03 09:21:07;;;;;;;6.97;2.65;;;;;;;10.70;100.00;99993.19;4823351;29;20046;-80
2021/11/03 09:23:34;;;;;;;7.07;3.30;;;;;;;10.76;100.00;99996.84;4844899;29;20019;-81
2021/11/03 09:26:00;;;;;;;10.00;3.58;;;;;;;10.80;100.00;99996.19;4830485;29;20030;-82
2021/11/03 09:28:28;;;;;;;10.68;4.45;;;;;;;10.98;100.00;99994.59;4845921;29;20030;-82
2021/11/03 09:30:55;;;;;;;12.85;5.00;;;;;;;11.07;100.00;99995.97;4803020;29;20061;-82
2021/11/03 09:33:21;;;;;;;13.60;5.70;;;;;;;11.15;100.00;100005.59;4827850;29;20116;-80
2021/11/03 09:35:49;;;;;;;16.63;7.53;;;;;;;11.25;100.00;100005.91;4850815;29;20057;-81
2021/11/03 09:38:18;;;;;;;16.25;7.90;;;;;;;11.34;100.00;100009.16;4831246;29;20026;-82
2021/11/03 09:40:53;;;;;;;14.98;7.47;;;;;;;11.24;100.00;100015.06;4809341;29;20030;-81
2021/11/03 09:43:29;;;;;;;11.90;6.38;;;;;;;11.17;100.00;100008.91;4837550;29;20537;-81
2021/11/03 09:45:55;;;;;;;13.18;7.53;;;;;;;11.21;100.00;100018.19;4837493;29;20034;-81
2021/11/03 09:48:44;;;;;;;14.20;7.25;;;;;;;11.19;100.00;100018.41;4845220;29;20038;-82
2021/11/03 09:51:20;;;;;;;10.73;7.00;;;;;;;11.13;100.00;100023.88;4820261;29;20357;-82
2021/11/03 09:53:50;;;;;;;11.52;6.90;;;;;;;10.89;100.00;100004.81;4831630;29;20033;-80
2021/11/03 09:56:24;;;;;;;14.13;7.38;;;;;;;10.85;100.00;100029.69;4814410;29;20050;-81
2021/11/03 09:59:02;;;;;;;9.43;7.75;;;;;;;10.69;100.00;100026.50;4826186;29;20071;-81
2021/11/03 10:01:42;;;;;;;16.10;7.90;;;;;;;10.51;100.00;100026.44;4814504;29;20365;-80
2021/11/03 10:04:17;;;;;;;5.40;1.27;;;;;;;10.15;100.00;100027.88;4834774;29;20037;-80
2021/11/03 10:06:45;;;;;;;5.10;0.88;;;;;;;9.93;100.00;100032.72;4834620;29;20049;-81
2021/11/03 10:09:11;;;;;;;4.38;0.77;;;;;;;9.87;100.00;100026.38;4806427;29;20038;-80
2021/11/03 10:11:41;;;;;;;4.03;0.52;;;;;;;9.95;100.00;100022.59;4800658;29;20461;-80
2021/11/03 10:14:08;;;;;;;5.05;0.85;;;;;;;10.08;100.00;100022.53;4839187;29;20091;-81
2021/11/03 10:16:37;;;;;;;6.30;2.00;;;;;;;10.12;100.00;100025.59;4817644;29;20408;-80
2021/11/03 10:19:08;;;;;;;5.18;1.80;;;;;;;10.26;100.00;100031.75;4826144;29;20027;-81
2021/11/03 10:21:45;;;;;;;4.05;2.03;;;;;;;10.50;100.00;100032.88;4827615;29;20030;-81
2021/11/03 10:24:26;;;;;;;13.35;3.90;;;;;;;10.81;100.00;100030.13;4817205;29;20030;-81
2021/11/03 10:26:59;;;;;;;10.77;3.15;;;;;;;11.05;100.00;100025.78;4813213;29;20030;-81
2021/11/03 10:29:30;;;;;;;10.68;3.55;;;;;;;11.15;100.00;100017.19;4828598;29;20586;-81
2021/11/03 10:32:07;;;;;;;8.93;4.03;;;;;;;11.31;100.00;100026.56;4821919;29;20076;-81
2021/11/03 10:34:33;;;;;;;8.50;3.50;;;;;;;11.41;100.00;100031.44;4830252;29;20094;-81
2021/11/03 10:37:16;;;;;;;9.32;3.45;;;;;;;11.50;100.00;100030.13;4830133;29;20030;-80
2021/11/03 10:39:57;;;;;;;7.97;3.55;;;;;;;11.41;100.00;100012.59;4838300;29;20028;-81
2021/11/03 10:42:28;;;;;;;8.98;3.67;;;;;;;11.60;100.00;100043.88;4827749;29;20034;-80
2021/11/03 10:45:19;;;;;;;7.85;3.42;;;;;;;11.40;100.00;100019.84;4833926;29;20022;-81
2021/11/03 10:47:53;;;;;;;9.30;3.30;;;;;;;11.62;100.00;100044.50;4822272;29;20377;-81
2021/11/03 10:50:30;;;;;;;8.63;3.53;;;;;;;11.65;100.00;100046.72;4817306;29;20023;-80
2021/11/03 10:53:02;;;;;;;9.98;2.95;;;;;;;11.63;100.00;100038.06;4828892;29;20034;-80
2021/11/03 10:55:37;;;;;;;7.00;2.58;;;;;;;11.60;100.00;100030.41;4840976;29;20068;-81
2021/11/03 10:58:18;;;;;;;7.35;3.05;;;;;;;11.56;100.00;100018.44;4852661;29;20050;-81
2021/11/03 11:00:59;;;;;;;4.13;2.42;;;;;;;11.45;100.00;99998.44;4844937;29;20175;-81
2021/11/03 11:03:54;;;;;;;8.40;2.70;;;;;;;11.53;100.00;100025.09;4832347;29;20109;-81
2021/11/03 11:06:29;;;;;;;8.55;2.70;;;;;;;11.61;100.00;100037.44;4839257;29;20061;-81
2021/11/03 11:09:03;;;;;;;5.97;2.30;;;;;;;11.53;100.00;100043.97;4829903;29;20038;-81
2021/11/03 11:11:31;;;;;;;8.57;2.70;;;;;;;11.39;100.00;100033.53;4831818;29;20125;-81
2021/11/03 11:14:02;;;;;;;11.10;2.60;;;;;;;11.40;100.00;100041.41;4812094;29;20377;-81
2021/11/03 11:16:39;;;;;;;9.85;2.40;;;;;;;11.38;100.00;100038.09;4824270;29;20469;-81
2021/11/03 11:19:23;;;;;;;8.38;2.28;;;;;;;11.28;100.00;100052.06;4813464;29;20038;-81
2021/11/03 11:22:00;;;;;;;9.50;2.33;;;;;;;11.20;100.00;100038.91;4828096;29;20551;-81
2021/11/03 11:24:35;;;;;;;7.10;2.30;;;;;;;11.27;100.00;100052.31;4830763;29;20048;-81
2021/11/03 11:27:11;;;;;;;6.97;2.10;;;;;;;11.24;100.00;100041.97;4838677;29;20064;-80
2021/11/03 11:30:02;;;;;;;5.68;2.10;;;;;;;11.18;100.00;100037.47;4836118;29;20026;-81
2021/11/03 11:32:41;;;;;;;8.00;3.28;;;;;;;11.20;100.00;100044.28;4812112;29;20061;-81
2021/11/03 11:35:19;;;;;;;8.75;3.03;;;;;;;11.16;100.00;100040.41;4838739;29;20461;-81
2021/11/03 11:38:08;;;;;;;7.95;2.90;;;;;;;11.22;100.00;100035.97;4846474;29;20042;-81
2021/11/03 11:40:50;;;;;;;6.68;2.90;;;;;;;11.33;100.00;100042.53;4822357;29;20477;-81
2021/11/03 11:43:32;;;;;;;9.82;3.65;;;;;;;11.24;100.00;100025.81;4827281;29;20050;-81
2021/11/03 11:46:01;;;;;;;10.40;4.30;;;;;;;11.29;100.00;100039.44;4829276;29;20041;-81
2021/11/03 11:48:33;;;;;;;8.98;4.15;;;;;;;11.34;100.00;100038.78;4829970;29;20055;-81
2021/11/03 11:51:06;;;;;;;10.27;4.63;;;;;;;11.39;100.00;100034.38;4829143;29;20022;-81
2021/11/03 11:53:38;;;;;;;10.23;5.38;;;;;;;11.41;100.00;100037.66;4841319;29;20041;-81
2021/11/03 11:56:09;;;;;;;7.80;3.78;;;;;;;11.35;100.00;100038.53;4820140;29;20464;-82